createdAt,value
2023-02-07T00:02:32.068Z,40.45
2023-02-07T00:05:21.076Z,40.88
2023-02-07T00:08:10.127Z,45.20
2023-02-07T00:10:58.289Z,38.42
2023-02-07T00:13:41.021Z,32.88
2023-02-07T00:16:23.636Z,30.52
2023-02-07T00:19:12.030Z,30.70
2023-02-07T00:22:01.130Z,28.30
2023-02-07T00:24:55.932Z,29.85
2023-02-07T00:27:46.138Z,24.73
2023-02-07T00:30:28.442Z,28.95
2023-02-07T00:33:19.110Z,27.55
2023-02-07T00:36:16.061Z,23.98
2023-02-07T00:39:09.449Z,25.75
2023-02-07T00:41:53.130Z,25.67
2023-02-07T00:44:35.430Z,26.10
2023-02-07T00:47:24.060Z,22.63
2023-02-07T00:50:13.326Z,28.77
2023-02-07T00:52:55.055Z,29.90
2023-02-07T00:55:45.058Z,26.70
2023-02-07T00:58:28.370Z,32.10
2023-02-07T01:01:17.401Z,29.75
2023-02-07T01:03:59.421Z,31.35
2023-02-07T01:06:48.175Z,29.52
2023-02-07T01:09:30.332Z,33.65
2023-02-07T01:12:19.071Z,34.92
2023-02-07T01:15:01.480Z,36.00
2023-02-07T01:17:50.019Z,31.35
2023-02-07T01:20:32.405Z,35.20
2023-02-07T01:23:29.053Z,34.95
2023-02-07T01:26:11.306Z,41.78
2023-02-07T01:29:00.042Z,38.10
2023-02-07T01:31:44.331Z,36.83
2023-02-07T01:34:34.099Z,37.00
2023-02-07T01:37:22.360Z,40.28
2023-02-07T01:40:05.061Z,41.47
2023-02-07T01:42:54.107Z,39.53
2023-02-07T01:45:48.331Z,37.08
2023-02-07T01:48:45.051Z,43.47
2023-02-07T01:51:29.363Z,35.72
2023-02-07T01:54:21.046Z,45.55
2023-02-07T01:57:14.014Z,40.75
2023-02-07T02:00:05.392Z,47.05
2023-02-07T02:02:51.072Z,45.50
2023-02-07T02:05:42.091Z,49.65
2023-02-07T02:08:24.348Z,45.80
2023-02-07T02:11:26.094Z,40.72
2023-02-07T02:14:32.278Z,38.42
2023-02-07T02:17:36.103Z,39.45
2023-02-07T02:20:55.286Z,31.35
2023-02-07T02:24:11.101Z,32.08
2023-02-07T02:27:30.294Z,28.17
2023-02-07T02:30:28.153Z,28.38
2023-02-07T02:33:28.345Z,26.92
2023-02-07T02:36:30.003Z,28.17
2023-02-07T02:39:33.037Z,25.45
2023-02-07T02:42:50.346Z,28.05
2023-02-07T02:45:45.084Z,25.15
2023-02-07T02:48:28.867Z,24.55
2023-02-07T02:51:20.148Z,21.70
2023-02-07T02:54:03.061Z,21.88
2023-02-07T02:57:39.031Z,28.13
2023-02-07T03:00:26.659Z,24.60
2023-02-07T03:03:52.049Z,29.35
2023-02-07T03:07:02.033Z,21.63
2023-02-07T03:10:09.030Z,27.75
2023-02-07T03:13:18.315Z,35.88
2023-02-07T03:16:30.382Z,26.65
2023-02-07T03:19:21.327Z,29.98
2023-02-07T03:22:18.029Z,32.70
2023-02-07T03:25:16.891Z,25.85
2023-02-07T03:28:07.122Z,31.40
2023-02-07T03:30:51.364Z,27.38
2023-02-07T03:33:41.089Z,28.83
2023-02-07T03:36:37.130Z,34.55
2023-02-07T03:39:26.304Z,38.70
2023-02-07T03:42:14.039Z,26.50
2023-02-07T03:45:04.398Z,24.17
2023-02-07T03:47:47.086Z,28.95
2023-02-07T03:50:35.352Z,21.15
2023-02-07T03:53:18.002Z,23.40
2023-02-07T03:56:00.284Z,22.40
2023-02-07T03:58:49.022Z,19.92
2023-02-07T04:01:31.808Z,22.60
2023-02-07T04:04:22.086Z,23.70
2023-02-07T04:07:04.357Z,24.02
2023-02-07T04:09:53.037Z,19.40
2023-02-07T04:12:41.960Z,19.55
2023-02-07T04:15:31.033Z,20.75
2023-02-07T04:18:20.452Z,46.40
2023-02-07T04:21:15.086Z,20.17
2023-02-07T04:24:09.881Z,23.75
2023-02-07T04:26:58.999Z,17.90
2023-02-07T04:29:41.330Z,19.45
2023-02-07T04:32:30.011Z,19.55
2023-02-07T04:35:12.408Z,13.95
2023-02-07T04:38:01.318Z,31.27
2023-02-07T04:40:43.312Z,16.67
2023-02-07T04:43:32.096Z,23.00
2023-02-07T04:46:15.362Z,14.25
2023-02-07T04:49:04.036Z,24.42
2023-02-07T04:51:46.311Z,23.88
2023-02-07T04:54:35.026Z,19.27
2023-02-07T04:57:17.364Z,18.13
2023-02-07T05:00:06.029Z,31.00
2023-02-07T05:02:49.266Z,21.20
2023-02-07T05:05:39.294Z,26.17
2023-02-07T05:08:25.303Z,19.27
2023-02-07T05:11:16.026Z,23.73
2023-02-07T05:13:58.284Z,30.30
2023-02-07T05:16:47.056Z,12.85
2023-02-07T05:19:29.459Z,14.15
2023-02-07T05:22:17.983Z,16.40
2023-02-07T05:25:00.259Z,15.65
2023-02-07T05:27:49.033Z,17.38
2023-02-07T05:30:31.392Z,19.05
2023-02-07T05:33:20.073Z,17.83
2023-02-07T05:36:03.887Z,17.27
2023-02-07T05:38:53.393Z,13.18
2023-02-07T05:41:35.328Z,11.98
2023-02-07T05:44:24.001Z,21.70
2023-02-07T05:47:13.077Z,17.08
2023-02-07T05:50:02.379Z,13.25
2023-02-07T05:52:44.394Z,18.98
2023-02-07T05:55:33.062Z,12.68
2023-02-07T05:58:15.488Z,18.25
2023-02-07T06:01:05.043Z,17.30
2023-02-07T06:03:47.279Z,12.35
2023-02-07T06:06:35.958Z,15.82
2023-02-07T06:09:18.351Z,15.63
2023-02-07T06:12:07.019Z,15.70
2023-02-07T06:14:56.011Z,13.20
2023-02-07T06:17:38.411Z,12.75
2023-02-07T06:20:26.982Z,25.38
2023-02-07T06:23:09.236Z,13.32
2023-02-07T06:25:57.981Z,13.48
2023-02-07T06:28:47.299Z,12.15
2023-02-07T06:31:30.067Z,9.93
2023-02-07T06:34:18.348Z,12.43
2023-02-07T06:37:01.025Z,7.32
2023-02-07T06:39:49.827Z,8.25
2023-02-07T06:42:33.004Z,7.97
2023-02-07T06:45:15.260Z,11.83
2023-02-07T06:48:04.004Z,13.35
2023-02-07T06:50:53.510Z,15.43
2023-02-07T06:53:35.313Z,18.40
2023-02-07T06:56:24.023Z,15.10
2023-02-07T06:59:06.369Z,10.23
2023-02-07T07:01:55.075Z,11.10
2023-02-07T07:04:38.363Z,11.38
2023-02-07T07:07:27.119Z,7.38
2023-02-07T07:10:09.400Z,11.43
2023-02-07T07:12:57.984Z,15.55
2023-02-07T07:15:40.520Z,12.05
2023-02-07T07:18:30.097Z,10.95
2023-02-07T07:21:12.380Z,11.13
2023-02-07T07:24:07.162Z,9.60
2023-02-07T07:26:57.626Z,10.55
2023-02-07T07:29:39.033Z,12.65
2023-02-07T07:32:33.310Z,19.23
2023-02-07T07:35:23.047Z,10.77
2023-02-07T07:38:12.041Z,11.05
2023-02-07T07:40:54.300Z,13.60
2023-02-07T07:43:42.963Z,10.82
2023-02-07T07:46:25.255Z,10.20
2023-02-07T07:49:13.990Z,12.98
2023-02-07T07:51:56.358Z,15.20
2023-02-07T07:54:45.223Z,13.23
2023-02-07T07:57:29.208Z,21.60
2023-02-07T08:00:18.992Z,16.58
2023-02-07T08:03:01.318Z,12.55
2023-02-07T08:05:50.038Z,13.38
2023-02-07T08:08:39.026Z,11.38
2023-02-07T08:11:27.306Z,12.43
2023-02-07T08:14:08.993Z,17.75
2023-02-07T08:16:51.166Z,14.05
2023-02-07T08:19:40.961Z,14.30
2023-02-07T08:22:32.065Z,11.35
2023-02-07T08:25:21.322Z,13.63
2023-02-07T08:28:04.722Z,14.85
2023-02-07T08:30:54.373Z,16.80
2023-02-07T08:33:37.037Z,13.98
2023-02-07T08:36:19.348Z,16.25
2023-02-07T08:39:08.002Z,15.07
2023-02-07T08:41:50.387Z,17.98
2023-02-07T09:39:27.851Z,17.27
2023-02-07T09:42:29.406Z,12.55
2023-02-07T09:45:40.298Z,13.65
2023-02-07T09:48:33.146Z,12.85
2023-02-07T09:51:18.862Z,11.17
2023-02-07T09:54:12.207Z,9.38
2023-02-07T09:56:55.846Z,11.23
2023-02-07T10:00:05.761Z,13.68
2023-02-07T10:03:15.865Z,9.55
2023-02-07T10:06:09.250Z,12.07
2023-02-07T10:09:10.871Z,10.45
2023-02-07T10:12:13.192Z,14.18
2023-02-07T10:15:28.839Z,11.43
2023-02-07T10:18:35.239Z,9.10
2023-02-07T10:21:35.834Z,8.70
2023-02-07T10:24:39.017Z,15.35
2023-02-07T10:27:32.941Z,8.68
2023-02-07T10:30:38.366Z,11.70
2023-02-07T10:33:24.781Z,9.52
2023-02-07T10:36:21.151Z,10.40
2023-02-07T10:39:15.884Z,13.18
2023-02-07T10:41:58.736Z,13.20
2023-02-07T10:44:47.881Z,16.90
2023-02-07T10:47:30.098Z,16.52
2023-02-07T10:50:29.659Z,12.60
2023-02-07T10:53:12.120Z,19.27
2023-02-07T10:56:01.215Z,12.05
2023-02-07T10:58:52.174Z,11.57
2023-02-07T11:01:42.058Z,13.48
2023-02-07T11:04:47.526Z,13.48
2023-02-07T11:07:47.054Z,13.05
2023-02-07T11:10:44.112Z,15.48
2023-02-07T11:13:38.809Z,9.13
2023-02-07T11:16:32.905Z,11.00
2023-02-07T11:19:25.588Z,10.90
2023-02-07T11:22:28.847Z,12.45
2023-02-07T11:25:17.829Z,10.82
2023-02-07T11:28:02.240Z,13.27
2023-02-07T11:33:36.173Z,14.65
2023-02-07T11:36:42.939Z,9.98
2023-02-07T11:39:32.129Z,13.80
2023-02-07T11:42:25.798Z,8.57
2023-02-07T11:45:19.396Z,13.95
2023-02-07T11:48:10.938Z,7.63
2023-02-07T11:51:06.069Z,11.65
2023-02-07T11:53:53.778Z,11.82
2023-02-07T11:56:57.124Z,16.65
2023-02-07T11:59:41.836Z,10.15
2023-02-07T12:02:36.126Z,8.10
2023-02-07T12:05:33.214Z,8.52
2023-02-07T12:08:26.106Z,9.30
2023-02-07T12:11:30.912Z,11.30
2023-02-07T12:14:43.185Z,10.50
2023-02-07T12:17:57.771Z,9.55
2023-02-07T12:21:29.833Z,10.13
2023-02-07T12:24:38.092Z,9.00
2023-02-07T12:27:27.813Z,12.40
2023-02-07T12:30:45.123Z,13.50
2023-02-07T12:33:45.891Z,15.27
2023-02-07T12:36:31.121Z,17.35
2023-02-07T12:39:41.893Z,16.02
2023-02-07T12:42:47.155Z,14.57
2023-02-07T12:45:51.878Z,25.58
2023-02-07T12:49:17.828Z,15.88
2023-02-07T12:52:07.208Z,23.63
2023-02-07T12:55:16.874Z,25.48
2023-02-07T12:58:14.203Z,20.58
2023-02-07T13:01:14.788Z,17.58
2023-02-07T13:04:27.248Z,24.35
2023-02-07T13:07:32.877Z,29.48
2023-02-07T13:10:54.730Z,21.95
2023-02-07T13:13:48.840Z,19.33
2023-02-07T13:16:51.186Z,24.50
2023-02-07T13:20:01.835Z,20.30
2023-02-07T13:23:10.775Z,22.33
2023-02-07T13:26:22.883Z,32.13
2023-02-07T13:29:11.091Z,29.08
2023-02-07T13:32:10.811Z,32.33
2023-02-07T13:35:19.252Z,35.78
2023-02-07T13:38:26.815Z,30.45
2023-02-07T13:41:15.106Z,29.63
2023-02-07T13:44:31.823Z,32.92
2023-02-07T13:47:58.726Z,27.40
2023-02-07T13:51:07.103Z,30.95
2023-02-07T13:54:28.941Z,35.65
2023-02-07T13:57:57.841Z,39.75
2023-02-07T14:01:12.107Z,50.72
2023-02-07T14:04:33.941Z,36.65
2023-02-07T14:07:49.127Z,51.80
2023-02-07T14:10:46.877Z,59.03
2023-02-07T14:13:41.181Z,51.92
2023-02-07T14:16:55.307Z,70.72
2023-02-07T14:19:50.789Z,78.10
2023-02-07T14:22:36.984Z,80.43
2023-02-07T14:25:51.766Z,93.25
2023-02-07T14:28:46.299Z,96.50
2023-02-07T14:31:38.920Z,88.18
2023-02-07T14:34:23.245Z,78.68
2023-02-07T14:40:41.281Z,90.53
2023-02-07T14:44:08.621Z,91.03
2023-02-07T14:46:58.885Z,84.18
2023-02-07T14:49:58.233Z,92.50
2023-02-07T14:52:46.864Z,88.38
2023-02-07T14:55:57.643Z,87.45
2023-02-07T14:58:48.861Z,77.20
2023-02-07T15:01:31.103Z,78.32
2023-02-07T15:04:24.811Z,72.30
2023-02-07T15:07:14.336Z,81.35
2023-02-07T15:10:02.831Z,75.07
2023-02-07T15:12:54.024Z,77.07
2023-02-07T15:15:38.889Z,84.18
2023-02-07T15:18:31.293Z,78.30
2023-02-07T15:21:14.816Z,75.68
2023-02-07T15:24:12.764Z,81.97
2023-02-07T15:27:38.798Z,80.72
2023-02-07T15:30:27.820Z,74.00
2023-02-07T15:33:18.819Z,73.15
2023-02-07T15:36:07.878Z,72.00
2023-02-07T15:38:51.142Z,77.97
2023-02-07T15:41:39.804Z,82.60
2023-02-07T15:44:39.008Z,74.90
2023-02-07T15:47:36.894Z,76.40
2023-02-07T15:50:22.307Z,87.78
2023-02-07T15:53:16.799Z,71.13
2023-02-07T15:56:00.422Z,56.47
2023-02-07T15:58:49.736Z,62.33
2023-02-07T16:01:34.874Z,70.93
2023-02-07T16:04:23.758Z,60.95
2023-02-07T16:07:20.112Z,58.00
2023-02-07T16:10:24.856Z,57.65
2023-02-07T16:13:11.017Z,62.95
2023-02-07T16:16:14.901Z,77.50
2023-02-07T16:19:40.740Z,80.22
2023-02-07T16:22:34.903Z,63.65
2023-02-07T16:25:24.243Z,66.78
2023-02-07T16:28:23.269Z,64.13
2023-02-07T16:31:07.105Z,60.53
2023-02-07T16:33:55.807Z,70.45
2023-02-07T16:36:38.066Z,88.53
2023-02-07T16:39:26.778Z,80.95
2023-02-07T16:42:19.725Z,66.22
2023-02-07T16:45:08.807Z,73.72
2023-02-07T16:47:51.229Z,77.30
2023-02-07T16:50:40.107Z,90.75
2023-02-07T16:53:22.094Z,78.80
2023-02-07T16:56:10.778Z,82.28
2023-02-07T16:58:55.609Z,85.70
2023-02-07T17:01:44.861Z,92.47
2023-02-07T17:04:28.841Z,87.75
2023-02-07T17:07:20.815Z,84.15
2023-02-07T17:10:03.223Z,91.53
2023-02-07T17:12:51.799Z,90.40
2023-02-07T17:15:34.187Z,96.45
2023-02-07T17:18:22.731Z,99.70
2023-02-07T17:21:05.153Z,96.55
2023-02-07T17:23:56.960Z,97.05
2023-02-07T17:26:40.269Z,106.15
2023-02-07T17:29:28.813Z,119.63
2023-02-07T17:32:11.316Z,116.03
2023-02-07T17:35:00.294Z,117.95
2023-02-07T17:37:42.233Z,81.30
2023-02-07T17:40:42.901Z,87.63
2023-02-07T17:43:25.314Z,96.88
2023-02-07T17:46:13.964Z,93.95
2023-02-07T17:48:58.377Z,88.78
2023-02-07T17:54:29.280Z,85.30
2023-02-07T17:57:21.804Z,88.93
2023-02-07T18:00:04.315Z,99.33
2023-02-07T18:02:54.810Z,74.80
2023-02-07T18:05:40.252Z,89.50
2023-02-07T18:08:28.927Z,90.68
2023-02-07T18:11:13.200Z,96.07
2023-02-07T18:14:01.768Z,90.85
2023-02-07T18:16:44.100Z,79.82
2023-02-07T18:19:32.782Z,83.72
2023-02-07T18:22:15.122Z,91.00
2023-02-07T18:25:04.797Z,91.95
2023-02-07T18:27:48.963Z,108.30
2023-02-07T18:30:38.178Z,79.13
2023-02-07T18:33:21.122Z,91.57
2023-02-07T18:36:10.203Z,95.13
2023-02-07T18:38:52.021Z,93.30
2023-02-07T18:41:40.892Z,92.97
2023-02-07T18:44:23.169Z,93.45
2023-02-07T18:47:11.773Z,83.88
2023-02-07T18:49:55.228Z,74.22
2023-02-07T18:52:43.723Z,75.78
2023-02-07T18:55:26.029Z,59.60
2023-02-07T18:58:14.945Z,78.90
2023-02-07T19:00:57.138Z,61.80
2023-02-07T19:03:46.904Z,72.50
2023-02-07T19:06:32.220Z,71.47
2023-02-07T19:09:22.839Z,67.88
2023-02-07T19:12:05.188Z,68.35
2023-02-07T19:14:53.786Z,78.97
2023-02-07T19:17:36.111Z,72.35
2023-02-07T19:20:30.816Z,81.97
2023-02-07T19:23:20.079Z,78.68
2023-02-07T19:26:01.818Z,70.32
2023-02-07T19:28:50.105Z,76.75
2023-02-07T19:31:36.912Z,78.55
2023-02-07T19:34:26.180Z,79.60
2023-02-07T19:37:10.144Z,77.50
2023-02-07T19:39:58.161Z,92.55
2023-02-07T19:42:39.812Z,80.22
2023-02-07T19:45:29.127Z,100.20
2023-02-07T19:48:11.786Z,87.78
2023-02-07T19:51:13.238Z,99.90
2023-02-07T19:53:57.759Z,126.57
2023-02-07T19:56:40.004Z,109.95
2023-02-07T19:59:28.734Z,125.43
2023-02-07T20:02:14.599Z,128.90
2023-02-07T20:05:03.784Z,125.03
2023-02-07T20:07:46.054Z,128.43
2023-02-07T20:10:35.763Z,143.23
2023-02-07T20:13:24.069Z,149.57
2023-02-07T20:16:06.870Z,157.93
2023-02-07T20:19:03.566Z,169.55
2023-02-07T20:21:52.856Z,159.00
2023-02-07T20:24:41.693Z,132.48
2023-02-07T20:27:30.808Z,120.18
2023-02-07T20:30:13.074Z,115.50
2023-02-07T20:33:02.793Z,110.68
2023-02-07T20:35:46.100Z,117.88
2023-02-07T20:38:35.258Z,111.88
2023-02-07T20:41:31.495Z,117.43
2023-02-07T20:44:26.747Z,125.07
2023-02-07T20:47:09.534Z,160.85
2023-02-07T20:49:58.814Z,173.05
2023-02-07T20:52:41.037Z,132.57
2023-02-07T20:55:29.691Z,105.68
2023-02-07T20:58:18.741Z,101.57
2023-02-07T21:01:08.849Z,100.35
2023-02-07T21:03:58.769Z,101.13
2023-02-07T21:06:47.095Z,101.00
2023-02-07T21:09:28.696Z,98.60
2023-02-07T21:12:10.964Z,109.78
2023-02-07T21:14:59.822Z,98.45
2023-02-07T21:17:48.092Z,90.57
2023-02-07T21:20:38.131Z,86.25
2023-02-07T21:23:26.709Z,93.35
2023-02-07T21:26:11.200Z,84.10
2023-02-07T21:29:00.764Z,71.35
2023-02-07T21:31:43.466Z,72.75
2023-02-07T21:34:32.704Z,62.75
2023-02-07T21:37:21.654Z,53.30
2023-02-07T21:40:11.115Z,48.20
2023-02-07T21:43:00.077Z,54.25
2023-02-07T21:45:42.769Z,52.55
2023-02-07T21:48:31.715Z,45.83
2023-02-07T21:51:19.153Z,49.67
2023-02-07T21:54:08.715Z,42.25
2023-02-07T21:56:52.624Z,31.77
2023-02-07T21:59:41.742Z,42.45
2023-02-07T22:02:24.081Z,41.55
2023-02-07T22:05:12.717Z,41.63
2023-02-07T22:08:01.821Z,40.33
2023-02-07T22:10:50.000Z,38.83
2023-02-07T22:13:32.890Z,34.47
2023-02-07T22:16:23.111Z,38.05
2023-02-07T22:19:19.805Z,32.70
2023-02-07T22:22:08.008Z,32.08
2023-02-07T22:24:50.829Z,34.53
2023-02-07T22:27:40.079Z,34.50
2023-02-07T22:30:22.706Z,32.78
2023-02-07T22:33:06.670Z,36.88
2023-02-07T22:35:57.813Z,45.03
2023-02-07T22:38:46.045Z,36.58
2023-02-07T22:41:29.783Z,37.60
2023-02-07T22:44:12.379Z,42.08
2023-02-07T22:47:01.729Z,37.15
2023-02-07T22:49:43.971Z,35.65
2023-02-07T22:52:32.757Z,40.40
2023-02-07T22:55:18.554Z,37.53
2023-02-07T22:58:10.736Z,41.53
2023-02-07T23:00:52.879Z,41.90
2023-02-07T23:03:41.739Z,45.97
2023-02-07T23:06:25.577Z,45.83
2023-02-07T23:09:15.762Z,45.78
2023-02-07T23:11:57.844Z,53.28
2023-02-07T23:14:46.708Z,51.70
2023-02-07T23:17:35.999Z,57.10
2023-02-07T23:20:18.800Z,60.38
2023-02-07T23:23:00.835Z,59.22
2023-02-07T23:25:49.822Z,67.28
2023-02-07T23:28:38.437Z,60.53
2023-02-07T23:31:23.845Z,66.70
2023-02-07T23:34:12.664Z,76.97
2023-02-07T23:37:01.704Z,77.40
2023-02-07T23:39:49.984Z,77.57
2023-02-07T23:42:32.199Z,81.03
2023-02-07T23:45:20.046Z,81.80
2023-02-07T23:48:02.705Z,80.70
2023-02-07T23:50:51.771Z,83.77
2023-02-07T23:53:34.055Z,92.10
2023-02-07T23:56:27.735Z,85.15
2023-02-07T23:59:10.062Z,88.20
